createdAt,value
2024-02-02T00:00:30.398Z,2.90
2024-02-02T00:01:02.333Z,2.94
2024-02-02T00:01:34.725Z,2.93
2024-02-02T00:02:07.260Z,2.94
2024-02-02T00:02:40.343Z,2.95
2024-02-02T00:03:12.296Z,2.97
2024-02-02T00:03:44.327Z,2.96
2024-02-02T00:04:16.270Z,2.94
2024-02-02T00:04:48.157Z,2.91
2024-02-02T00:05:19.936Z,2.90
2024-02-02T00:05:51.782Z,2.87
2024-02-02T00:06:23.791Z,2.89
2024-02-02T00:06:55.849Z,2.90
2024-02-02T00:07:27.879Z,2.90
2024-02-02T00:07:59.787Z,2.89
2024-02-02T00:08:31.549Z,2.89
2024-02-02T00:09:07.210Z,2.85
2024-02-02T00:09:39.069Z,2.87
2024-02-02T00:10:10.901Z,2.87
2024-02-02T00:10:42.786Z,2.87
2024-02-02T00:11:14.603Z,2.90
2024-02-02T00:11:47.477Z,2.89
2024-02-02T00:12:19.402Z,2.91
2024-02-02T00:12:51.282Z,2.89
2024-02-02T00:13:23.047Z,2.89
2024-02-02T00:13:54.992Z,2.88
2024-02-02T00:14:26.831Z,2.88
2024-02-02T00:14:58.734Z,2.87
2024-02-02T00:15:30.660Z,2.89
2024-02-02T00:16:02.488Z,2.89
2024-02-02T00:16:34.235Z,2.86
2024-02-02T00:17:06.241Z,2.87
2024-02-02T00:17:37.997Z,2.87
2024-02-02T00:18:10.201Z,2.87
2024-02-02T00:18:42.218Z,2.87
2024-02-02T00:19:14.228Z,2.86
2024-02-02T00:19:46.201Z,2.86
2024-02-02T00:20:18.414Z,2.86
2024-02-02T00:20:50.313Z,2.85
2024-02-02T00:21:22.250Z,2.83
2024-02-02T00:21:54.314Z,2.85
2024-02-02T00:22:26.209Z,2.86
2024-02-02T00:22:57.993Z,2.87
2024-02-02T00:23:29.854Z,2.86
2024-02-02T00:24:01.706Z,2.86
2024-02-02T00:24:33.720Z,2.87
2024-02-02T00:25:05.709Z,2.90
2024-02-02T00:25:37.806Z,2.89
2024-02-02T00:26:09.631Z,2.90
2024-02-02T00:26:41.466Z,2.87
2024-02-02T00:27:13.330Z,2.85
2024-02-02T00:27:45.382Z,2.86
2024-02-02T00:28:17.152Z,2.88
2024-02-02T00:28:49.012Z,2.88
2024-02-02T00:29:20.898Z,2.88
2024-02-02T00:29:52.746Z,2.90
2024-02-02T00:30:24.756Z,2.88
2024-02-02T00:30:56.577Z,2.90
2024-02-02T00:31:28.325Z,2.87
2024-02-02T00:32:00.123Z,2.87
2024-02-02T00:32:32.023Z,2.87
2024-02-02T00:33:04.299Z,2.87
2024-02-02T00:33:36.255Z,2.85
2024-02-02T00:34:08.614Z,2.86
2024-02-02T00:34:41.270Z,2.87
2024-02-02T00:35:15.871Z,2.87
2024-02-02T00:35:47.715Z,2.87
2024-02-02T00:36:19.567Z,2.89
2024-02-02T00:36:51.406Z,2.87
2024-02-02T00:37:23.191Z,2.87
2024-02-02T00:37:55.453Z,2.89
2024-02-02T00:38:27.311Z,2.90
2024-02-02T00:38:59.135Z,2.90
2024-02-02T00:39:31.080Z,2.90
2024-02-02T00:40:02.997Z,2.90
2024-02-02T00:40:34.787Z,2.88
2024-02-02T00:41:06.593Z,2.88
2024-02-02T00:41:38.425Z,2.90
2024-02-02T00:42:10.287Z,2.87
2024-02-02T00:42:43.724Z,2.87
2024-02-02T00:43:15.530Z,2.87
2024-02-02T00:43:47.421Z,2.85
2024-02-02T00:44:19.309Z,2.88
2024-02-02T00:44:51.184Z,2.91
2024-02-02T00:45:23.004Z,2.91
2024-02-02T00:45:54.879Z,2.89
2024-02-02T00:46:26.692Z,2.88
2024-02-02T00:46:58.461Z,2.92
2024-02-02T00:47:30.278Z,2.92
2024-02-02T00:48:02.743Z,2.90
2024-02-02T00:48:35.623Z,2.92
2024-02-02T00:49:07.853Z,2.95
2024-02-02T00:49:40.975Z,2.93
2024-02-02T00:50:13.042Z,2.93
2024-02-02T00:50:44.847Z,2.93
2024-02-02T00:51:16.766Z,2.95
2024-02-02T00:51:48.696Z,2.94
2024-02-02T00:52:20.715Z,2.94
2024-02-02T00:52:52.542Z,2.95
2024-02-02T00:53:24.380Z,2.93
2024-02-02T00:53:56.282Z,2.95
2024-02-02T00:54:28.233Z,2.93
2024-02-02T00:55:01.250Z,2.93
2024-02-02T00:55:33.030Z,2.96
2024-02-02T00:56:05.204Z,2.95
2024-02-02T00:56:37.157Z,2.94
2024-02-02T00:57:09.067Z,2.93
2024-02-02T00:57:40.961Z,2.91
2024-02-02T00:58:12.926Z,2.91
2024-02-02T00:58:44.694Z,2.90
2024-02-02T00:59:16.515Z,2.91
2024-02-02T00:59:49.497Z,2.94
2024-02-02T01:00:21.337Z,2.96
2024-02-02T01:00:53.317Z,2.94
2024-02-02T01:01:25.130Z,2.94
2024-02-02T01:01:56.993Z,2.95
2024-02-02T01:02:28.787Z,2.95
2024-02-02T01:03:00.744Z,2.96
2024-02-02T01:03:35.142Z,2.94
2024-02-02T01:04:07.151Z,2.95
2024-02-02T01:04:39.739Z,2.96
2024-02-02T01:05:11.702Z,2.96
2024-02-02T01:05:43.918Z,2.95
2024-02-02T01:06:16.022Z,2.96
2024-02-02T01:06:48.002Z,2.97
2024-02-02T01:07:19.883Z,2.97
2024-02-02T01:07:51.673Z,3.00
2024-02-02T01:08:23.532Z,2.99
2024-02-02T01:08:55.444Z,3.02
2024-02-02T01:09:27.362Z,3.02
2024-02-02T01:09:59.225Z,3.05
2024-02-02T01:10:31.013Z,3.03
2024-02-02T01:11:03.950Z,3.03
2024-02-02T01:11:35.891Z,3.03
2024-02-02T01:12:07.717Z,3.02
2024-02-02T01:12:40.518Z,3.04
2024-02-02T01:13:14.977Z,3.03
2024-02-02T01:13:46.779Z,3.03
2024-02-02T01:14:18.683Z,3.03
2024-02-02T01:14:50.548Z,3.02
2024-02-02T01:15:22.757Z,3.00
2024-02-02T01:15:54.690Z,3.02
2024-02-02T01:16:26.542Z,3.03
2024-02-02T01:16:58.357Z,3.00
2024-02-02T01:17:30.656Z,2.98
2024-02-02T01:18:04.048Z,2.98
2024-02-02T01:18:36.169Z,2.98
2024-02-02T01:19:08.360Z,2.99
2024-02-02T01:19:40.375Z,2.98
2024-02-02T01:20:15.067Z,2.99
2024-02-02T01:20:47.085Z,2.99
2024-02-02T01:21:19.110Z,2.98
2024-02-02T01:21:51.456Z,2.94
2024-02-02T01:22:23.262Z,2.97
2024-02-02T01:22:55.098Z,2.94
2024-02-02T01:23:27.214Z,2.96
2024-02-02T01:24:00.265Z,2.95
2024-02-02T01:24:32.866Z,2.97
2024-02-02T01:25:04.947Z,2.96
2024-02-02T01:25:36.793Z,2.94
2024-02-02T01:26:08.609Z,2.94
2024-02-02T01:26:40.410Z,2.96
2024-02-02T01:27:12.266Z,2.95
2024-02-02T01:27:44.383Z,2.92
2024-02-02T01:28:16.250Z,2.91
2024-02-02T01:28:48.066Z,2.88
2024-02-02T01:29:19.872Z,2.86
2024-02-02T01:29:51.871Z,2.81
2024-02-02T01:30:24.647Z,2.80
2024-02-02T01:30:56.561Z,2.80
2024-02-02T01:31:28.425Z,2.77
2024-02-02T01:32:00.311Z,2.73
2024-02-02T01:32:32.093Z,2.77
2024-02-02T01:33:04.284Z,2.75
2024-02-02T01:33:36.301Z,2.74
2024-02-02T01:34:08.414Z,2.72
2024-02-02T01:34:40.579Z,2.68
2024-02-02T01:35:12.456Z,2.64
2024-02-02T01:35:44.275Z,2.65
2024-02-02T01:36:16.333Z,2.63
2024-02-02T01:36:48.211Z,2.64
2024-02-02T01:37:20.004Z,2.61
2024-02-02T01:37:51.874Z,2.59
2024-02-02T01:38:24.128Z,2.57
2024-02-02T01:38:56.034Z,2.55
2024-02-02T01:39:27.903Z,2.55
2024-02-02T01:39:59.833Z,2.52
2024-02-02T01:40:31.673Z,2.48
2024-02-02T01:41:03.565Z,2.48
2024-02-02T01:41:35.373Z,2.49
2024-02-02T01:42:07.723Z,2.47
2024-02-02T01:42:39.607Z,2.49
2024-02-02T01:43:11.443Z,2.48
2024-02-02T01:43:43.258Z,2.41
2024-02-02T01:44:15.128Z,2.41
2024-02-02T01:44:46.952Z,2.41
2024-02-02T01:45:18.756Z,2.39
2024-02-02T01:45:52.029Z,2.37
2024-02-02T01:46:23.825Z,2.37
2024-02-02T01:46:55.763Z,2.38
2024-02-02T01:47:27.770Z,2.33
2024-02-02T01:48:00.400Z,2.34
2024-02-02T01:48:32.528Z,2.37
2024-02-02T01:49:04.552Z,2.37
2024-02-02T01:49:36.568Z,2.35
2024-02-02T01:50:09.553Z,2.29
2024-02-02T01:50:41.436Z,2.27
2024-02-02T01:51:13.682Z,2.25
2024-02-02T01:51:45.476Z,2.26
2024-02-02T01:52:17.453Z,2.26
2024-02-02T01:52:49.361Z,2.27
2024-02-02T01:53:21.162Z,2.23
2024-02-02T01:53:53.804Z,2.20
2024-02-02T01:54:25.793Z,2.20
2024-02-02T01:54:58.544Z,2.15
2024-02-02T01:55:30.446Z,2.14
2024-02-02T01:56:02.392Z,2.13
2024-02-02T01:56:34.925Z,2.13
2024-02-02T01:57:06.878Z,2.10
2024-02-02T01:57:39.428Z,2.12
2024-02-02T01:58:11.251Z,2.13
2024-02-02T01:58:43.119Z,2.12
2024-02-02T01:59:15.815Z,2.12
2024-02-02T01:59:48.389Z,2.09
2024-02-02T02:00:20.332Z,2.08
2024-02-02T02:00:52.420Z,2.03
2024-02-02T02:01:26.522Z,2.00
2024-02-02T02:01:58.581Z,1.98
2024-02-02T02:02:30.421Z,1.99
2024-02-02T02:03:02.994Z,1.98
2024-02-02T02:03:35.203Z,1.99
2024-02-02T02:04:07.267Z,1.96
2024-02-02T02:04:41.677Z,1.94
2024-02-02T02:05:13.521Z,1.92
2024-02-02T02:05:45.495Z,1.94
2024-02-02T02:06:17.511Z,1.94
2024-02-02T02:06:49.674Z,1.97
2024-02-02T02:07:21.731Z,2.00
2024-02-02T02:07:53.545Z,1.99
2024-02-02T02:08:25.353Z,1.94
2024-02-02T02:08:57.195Z,1.95
2024-02-02T02:09:29.034Z,1.93
2024-02-02T02:10:01.296Z,1.92
2024-02-02T02:10:33.457Z,1.89
2024-02-02T02:11:07.633Z,1.90
2024-02-02T02:11:39.602Z,1.90
2024-02-02T02:12:11.437Z,1.88
2024-02-02T02:12:43.258Z,1.87
2024-02-02T02:13:15.226Z,1.86
2024-02-02T02:13:47.221Z,1.85
2024-02-02T02:14:19.456Z,1.86
2024-02-02T02:14:51.390Z,1.84
2024-02-02T02:15:24.781Z,1.86
2024-02-02T02:15:56.657Z,1.88
2024-02-02T02:16:28.698Z,1.86
2024-02-02T02:17:00.472Z,1.87
2024-02-02T02:17:32.356Z,1.86
2024-02-02T02:18:04.266Z,1.86
2024-02-02T02:18:42.132Z,1.87
2024-02-02T02:19:19.975Z,1.89
2024-02-02T02:19:51.971Z,1.86
2024-02-02T02:20:26.816Z,1.89
2024-02-02T02:20:59.465Z,1.90
2024-02-02T02:21:31.360Z,1.89
2024-02-02T02:22:03.640Z,1.88
2024-02-02T02:22:35.486Z,1.86
2024-02-02T02:23:09.568Z,1.88
2024-02-02T02:23:41.442Z,1.89
2024-02-02T02:24:13.617Z,1.87
2024-02-02T02:24:45.513Z,1.86
2024-02-02T02:25:17.406Z,1.83
2024-02-02T02:25:49.263Z,1.82
2024-02-02T02:26:21.444Z,1.81
2024-02-02T02:26:53.778Z,1.82
2024-02-02T02:27:25.760Z,1.81
2024-02-02T02:27:57.635Z,1.82
2024-02-02T02:28:29.491Z,1.85
2024-02-02T02:29:01.319Z,1.86
2024-02-02T02:29:33.075Z,1.86
2024-02-02T02:30:05.316Z,1.84
2024-02-02T02:30:37.239Z,1.81
2024-02-02T02:31:18.547Z,1.83
2024-02-02T02:31:56.713Z,1.86
2024-02-02T02:32:28.813Z,1.84
2024-02-02T02:33:00.795Z,1.85
2024-02-02T02:33:32.831Z,1.84
2024-02-02T02:34:04.847Z,1.85
2024-02-02T02:34:37.533Z,1.83
2024-02-02T02:35:09.856Z,1.81
2024-02-02T02:35:41.761Z,1.80
2024-02-02T02:36:17.485Z,1.80
2024-02-02T02:36:49.376Z,1.79
2024-02-02T02:37:21.192Z,1.81
2024-02-02T02:37:54.254Z,1.80
2024-02-02T02:38:26.124Z,1.80
2024-02-02T02:38:58.006Z,1.79
2024-02-02T02:39:29.928Z,1.78
2024-02-02T02:40:01.784Z,1.82
2024-02-02T02:40:33.591Z,1.82
2024-02-02T02:41:06.224Z,1.82
2024-02-02T02:41:38.169Z,1.83
2024-02-02T02:42:10.282Z,1.83
2024-02-02T02:42:42.149Z,1.80
2024-02-02T02:43:13.968Z,1.78
2024-02-02T02:43:45.788Z,1.78
2024-02-02T02:44:17.586Z,1.74
2024-02-02T02:44:49.507Z,1.75
2024-02-02T02:45:21.417Z,1.75
2024-02-02T02:45:53.332Z,1.74
2024-02-02T02:46:25.148Z,1.73
2024-02-02T02:46:56.993Z,1.71
2024-02-02T02:47:28.971Z,1.69
2024-02-02T02:48:01.675Z,1.70
2024-02-02T02:48:34.385Z,1.68
2024-02-02T02:49:06.677Z,1.67
2024-02-02T02:49:38.652Z,1.68
2024-02-02T02:50:10.742Z,1.67
2024-02-02T02:50:42.592Z,1.64
2024-02-02T02:51:14.554Z,1.63
2024-02-02T02:51:47.049Z,1.61
2024-02-02T02:52:19.411Z,1.62
2024-02-02T02:52:51.222Z,1.61
2024-02-02T02:53:23.062Z,1.59
2024-02-02T02:53:54.902Z,1.58
2024-02-02T02:54:26.776Z,1.60
2024-02-02T02:54:58.626Z,1.60
2024-02-02T02:55:30.488Z,1.60
2024-02-02T02:56:02.305Z,1.61
2024-02-02T02:56:34.453Z,1.62
2024-02-02T02:57:06.408Z,1.62
2024-02-02T02:57:38.270Z,1.62
2024-02-02T02:58:10.099Z,1.63
2024-02-02T02:58:42.111Z,1.65
2024-02-02T02:59:13.916Z,1.65
2024-02-02T02:59:45.734Z,1.66
2024-02-02T03:00:18.540Z,1.66
2024-02-02T03:00:50.492Z,1.66
2024-02-02T03:01:22.961Z,1.67
2024-02-02T03:01:54.774Z,1.68
2024-02-02T03:02:26.606Z,1.72
2024-02-02T03:02:59.202Z,1.74
2024-02-02T03:03:31.156Z,1.74
2024-02-02T03:04:03.149Z,1.76
2024-02-02T03:04:35.134Z,1.74
2024-02-02T03:05:07.374Z,1.75
2024-02-02T03:05:39.587Z,1.75
2024-02-02T03:06:11.589Z,1.75
2024-02-02T03:06:43.670Z,1.77
2024-02-02T03:07:15.606Z,1.77
2024-02-02T03:07:47.497Z,1.76
2024-02-02T03:08:19.360Z,1.72
2024-02-02T03:08:51.233Z,1.76
2024-02-02T03:09:23.071Z,1.74
2024-02-02T03:09:54.913Z,1.74
2024-02-02T03:10:26.735Z,1.76
2024-02-02T03:11:01.610Z,1.77
2024-02-02T03:11:33.607Z,1.75
2024-02-02T03:12:05.718Z,1.77
2024-02-02T03:12:37.731Z,1.75
2024-02-02T03:13:09.557Z,1.75
2024-02-02T03:13:41.409Z,1.74
2024-02-02T03:14:14.736Z,1.73
2024-02-02T03:14:46.557Z,1.71
2024-02-02T03:15:18.459Z,1.74
2024-02-02T03:15:50.310Z,1.72
2024-02-02T03:16:22.163Z,1.72
2024-02-02T03:16:53.942Z,1.72
2024-02-02T03:17:25.725Z,1.73
2024-02-02T03:17:57.628Z,1.72
2024-02-02T03:18:29.665Z,1.73
2024-02-02T03:19:01.742Z,1.71
2024-02-02T03:19:33.682Z,1.71
2024-02-02T03:20:09.191Z,1.70
2024-02-02T03:20:41.081Z,1.71
2024-02-02T03:21:12.964Z,1.69
2024-02-02T03:21:44.823Z,1.70
2024-02-02T03:22:16.607Z,1.69
2024-02-02T03:22:48.427Z,1.69
2024-02-02T03:23:20.270Z,1.67
2024-02-02T03:23:52.188Z,1.70
2024-02-02T03:24:24.047Z,1.73
2024-02-02T03:24:55.955Z,1.70
2024-02-02T03:25:27.732Z,1.65
2024-02-02T03:25:59.518Z,1.63
2024-02-02T03:26:31.411Z,1.64
2024-02-02T03:27:03.401Z,1.67
2024-02-02T03:27:36.040Z,1.70
2024-02-02T03:28:07.877Z,1.71
2024-02-02T03:28:39.773Z,1.70
2024-02-02T03:29:11.697Z,1.68
2024-02-02T03:29:43.913Z,1.69
2024-02-02T03:30:15.834Z,1.68
2024-02-02T03:30:47.730Z,1.71
2024-02-02T03:31:19.707Z,1.72
2024-02-02T03:31:51.523Z,1.73
2024-02-02T03:32:23.350Z,1.72
2024-02-02T03:32:55.338Z,1.74
2024-02-02T03:33:27.428Z,1.75
2024-02-02T03:33:59.464Z,1.76
2024-02-02T03:34:31.482Z,1.76
2024-02-02T03:35:03.379Z,1.76
2024-02-02T03:35:35.363Z,1.77
2024-02-02T03:36:07.317Z,1.79
2024-02-02T03:36:39.230Z,1.78
2024-02-02T03:37:11.107Z,1.77
2024-02-02T03:37:43.041Z,1.79
2024-02-02T03:38:14.812Z,1.79
2024-02-02T03:38:46.624Z,1.77
2024-02-02T03:39:18.883Z,1.82
2024-02-02T03:39:51.032Z,1.79
2024-02-02T03:40:23.211Z,1.79
2024-02-02T03:40:55.015Z,1.80
2024-02-02T03:41:26.780Z,1.81
2024-02-02T03:41:58.562Z,1.82
2024-02-02T03:42:30.465Z,1.81
2024-02-02T03:43:02.771Z,1.81
2024-02-02T03:43:34.918Z,1.80
2024-02-02T03:44:06.775Z,1.77
2024-02-02T03:44:38.592Z,1.74
2024-02-02T03:45:10.589Z,1.74
2024-02-02T03:45:42.454Z,1.71
2024-02-02T03:46:14.313Z,1.71
2024-02-02T03:46:46.170Z,1.73
2024-02-02T03:47:17.985Z,1.71
2024-02-02T03:47:49.914Z,1.66
2024-02-02T03:48:21.842Z,1.69
2024-02-02T03:48:56.259Z,1.66
2024-02-02T03:49:28.231Z,1.67
2024-02-02T03:50:00.226Z,1.65
2024-02-02T03:50:32.095Z,1.61
2024-02-02T03:51:04.008Z,1.62
2024-02-02T03:51:35.967Z,1.59
2024-02-02T03:52:08.781Z,1.62
2024-02-02T03:52:40.735Z,1.59
2024-02-02T03:53:12.585Z,1.61
2024-02-02T03:53:44.452Z,1.60
2024-02-02T03:54:16.309Z,1.60
2024-02-02T03:54:48.132Z,1.59
2024-02-02T03:55:19.900Z,1.57
2024-02-02T03:55:51.719Z,1.58
2024-02-02T03:56:23.534Z,1.57
2024-02-02T03:56:55.817Z,1.56
2024-02-02T03:57:27.738Z,1.55
2024-02-02T03:57:59.563Z,1.54
2024-02-02T03:58:31.395Z,1.53
2024-02-02T03:59:03.218Z,1.51
2024-02-02T03:59:35.081Z,1.50
2024-02-02T04:00:10.993Z,1.51
2024-02-02T04:00:43.022Z,1.50
2024-02-02T04:01:14.928Z,1.46
2024-02-02T04:01:46.823Z,1.45
2024-02-02T04:02:18.689Z,1.42
2024-02-02T04:02:51.625Z,1.41
2024-02-02T04:03:23.541Z,1.42
2024-02-02T04:03:55.527Z,1.43
2024-02-02T04:04:27.451Z,1.44
2024-02-02T04:04:59.279Z,1.44
2024-02-02T04:05:31.281Z,1.42
2024-02-02T04:06:04.206Z,1.41
2024-02-02T04:06:36.022Z,1.36
2024-02-02T04:07:07.878Z,1.34
2024-02-02T04:07:39.903Z,1.33
2024-02-02T04:08:11.788Z,1.31
2024-02-02T04:08:44.302Z,1.32
2024-02-02T04:09:16.315Z,1.29
2024-02-02T04:09:48.139Z,1.26
2024-02-02T04:10:19.909Z,1.25
2024-02-02T04:10:51.701Z,1.22
2024-02-02T04:11:23.493Z,1.21
2024-02-02T04:11:55.393Z,1.21
2024-02-02T04:12:27.308Z,1.20
2024-02-02T04:12:59.391Z,1.20
2024-02-02T04:13:31.222Z,1.19
2024-02-02T04:14:02.980Z,1.17
2024-02-02T04:14:34.915Z,1.14
2024-02-02T04:15:07.715Z,1.14
2024-02-02T04:15:41.039Z,1.14
2024-02-02T04:16:13.223Z,1.11
2024-02-02T04:16:45.046Z,1.07
2024-02-02T04:17:16.969Z,1.07
2024-02-02T04:17:48.752Z,1.10
2024-02-02T04:18:20.804Z,1.09
2024-02-02T04:18:53.068Z,1.07
2024-02-02T04:19:25.146Z,1.08
2024-02-02T04:19:57.099Z,1.06
2024-02-02T04:20:28.897Z,1.05
2024-02-02T04:21:00.788Z,1.08
2024-02-02T04:21:32.697Z,1.09
2024-02-02T04:22:04.587Z,1.10
2024-02-02T04:22:36.444Z,1.14
2024-02-02T04:23:08.325Z,1.10
2024-02-02T04:23:40.107Z,1.09
2024-02-02T04:24:12.040Z,1.09
2024-02-02T04:24:44.976Z,1.08
2024-02-02T04:25:16.750Z,1.06
2024-02-02T04:25:48.531Z,1.06
2024-02-02T04:26:20.318Z,1.05
2024-02-02T04:26:52.198Z,1.01
2024-02-02T04:27:24.079Z,1.04
2024-02-02T04:27:56.018Z,1.06
2024-02-02T04:28:28.220Z,1.07
2024-02-02T04:28:59.998Z,1.06
2024-02-02T04:29:31.749Z,1.05
2024-02-02T04:30:05.039Z,1.02
2024-02-02T04:30:37.143Z,1.01
2024-02-02T04:31:09.079Z,0.99
2024-02-02T04:31:40.921Z,1.00
2024-02-02T04:32:12.803Z,0.99
2024-02-02T04:32:44.704Z,1.01
2024-02-02T04:33:16.873Z,1.00
2024-02-02T04:33:48.872Z,1.00
2024-02-02T04:34:20.871Z,0.99
2024-02-02T04:34:52.899Z,1.00
2024-02-02T04:35:24.919Z,0.99
2024-02-02T04:35:56.789Z,0.99
2024-02-02T04:36:28.823Z,0.96
2024-02-02T04:37:00.657Z,0.94
2024-02-02T04:37:32.412Z,0.97
2024-02-02T04:38:05.418Z,0.98
2024-02-02T04:38:37.245Z,1.00
2024-02-02T04:39:09.766Z,1.02
2024-02-02T04:39:41.556Z,1.00
2024-02-02T04:40:13.522Z,0.99
2024-02-02T04:40:48.650Z,0.97
2024-02-02T04:41:20.470Z,0.97
2024-02-02T04:41:52.312Z,0.95
2024-02-02T04:42:24.171Z,0.94
2024-02-02T04:42:56.139Z,0.93
2024-02-02T04:43:28.198Z,0.91
2024-02-02T04:44:00.053Z,0.89
2024-02-02T04:44:31.861Z,0.90
2024-02-02T04:45:03.932Z,0.91
2024-02-02T04:45:35.919Z,0.89
2024-02-02T04:46:07.728Z,0.91
2024-02-02T04:46:39.557Z,0.90
2024-02-02T04:47:11.394Z,0.92
2024-02-02T04:47:43.304Z,0.88
2024-02-02T04:48:15.522Z,0.90
2024-02-02T04:48:47.664Z,0.90
2024-02-02T04:49:19.715Z,0.90
2024-02-02T04:49:51.649Z,0.90
2024-02-02T04:50:26.768Z,0.87
2024-02-02T04:50:58.876Z,0.88
2024-02-02T04:51:30.801Z,0.86
2024-02-02T04:52:02.739Z,0.83
2024-02-02T04:52:34.998Z,0.81
2024-02-02T04:53:07.720Z,0.79
2024-02-02T04:53:39.547Z,0.75
2024-02-02T04:54:11.640Z,0.75
2024-02-02T04:54:43.531Z,0.76
2024-02-02T04:55:15.470Z,0.73
2024-02-02T04:55:47.256Z,0.71
2024-02-02T04:56:19.101Z,0.72
2024-02-02T04:56:50.896Z,0.71
2024-02-02T04:57:22.708Z,0.72
2024-02-02T04:57:54.549Z,0.69
2024-02-02T04:58:27.204Z,0.68
2024-02-02T04:58:58.982Z,0.65
2024-02-02T04:59:30.821Z,0.62
2024-02-02T05:00:02.712Z,0.62
2024-02-02T05:00:36.711Z,0.61
2024-02-02T05:01:08.841Z,0.58
2024-02-02T05:01:40.879Z,0.57
2024-02-02T05:02:12.851Z,0.54
2024-02-02T05:02:44.640Z,0.54
2024-02-02T05:03:16.512Z,0.56
2024-02-02T05:03:48.463Z,0.57
2024-02-02T05:04:20.479Z,0.56
2024-02-02T05:04:52.600Z,0.55
2024-02-02T05:05:24.458Z,0.54
2024-02-02T05:05:56.437Z,0.54
2024-02-02T05:06:28.338Z,0.54
2024-02-02T05:07:00.990Z,0.53
2024-02-02T05:07:33.209Z,0.55
2024-02-02T05:08:05.499Z,0.57
2024-02-02T05:08:37.321Z,0.58
2024-02-02T05:09:09.337Z,0.59
2024-02-02T05:09:41.147Z,0.59
2024-02-02T05:10:12.996Z,0.58
2024-02-02T05:10:44.942Z,0.57
2024-02-02T05:11:16.863Z,0.58
2024-02-02T05:11:48.676Z,0.58
2024-02-02T05:12:20.537Z,0.60
2024-02-02T05:12:52.436Z,0.59
2024-02-02T05:13:24.290Z,0.59
2024-02-02T05:13:56.214Z,0.61
2024-02-02T05:14:28.042Z,0.61
2024-02-02T05:14:59.916Z,0.57
2024-02-02T05:15:31.909Z,0.62
2024-02-02T05:16:03.942Z,0.62
2024-02-02T05:16:35.821Z,0.63
2024-02-02T05:17:07.678Z,0.65
2024-02-02T05:17:39.540Z,0.65
2024-02-02T05:18:12.110Z,0.68
2024-02-02T05:18:44.360Z,0.68
2024-02-02T05:19:16.307Z,0.70
2024-02-02T05:19:48.211Z,0.70
2024-02-02T05:20:20.025Z,0.72
2024-02-02T05:20:51.958Z,0.73
2024-02-02T05:21:23.786Z,0.75
2024-02-02T05:21:55.883Z,0.74
2024-02-02T05:22:27.778Z,0.74
2024-02-02T05:22:59.913Z,0.76
2024-02-02T05:23:31.779Z,0.78
2024-02-02T05:24:14.742Z,0.77
2024-02-02T05:24:55.457Z,0.80
2024-02-02T05:25:27.822Z,0.80
2024-02-02T05:25:59.671Z,0.80
2024-02-02T05:26:31.612Z,0.80
2024-02-02T05:27:03.810Z,0.81
2024-02-02T05:27:36.223Z,0.82
2024-02-02T05:28:08.134Z,0.80
2024-02-02T05:28:41.560Z,0.80
2024-02-02T05:29:14.039Z,0.78
2024-02-02T05:29:45.974Z,0.80
2024-02-02T05:30:17.863Z,0.78
2024-02-02T05:30:49.711Z,0.79
2024-02-02T05:31:21.564Z,0.77
2024-02-02T05:31:53.392Z,0.77
2024-02-02T05:32:25.373Z,0.75
2024-02-02T05:32:57.452Z,0.76
2024-02-02T05:33:29.589Z,0.78
2024-02-02T05:34:01.570Z,0.76
2024-02-02T05:34:33.581Z,0.74
2024-02-02T05:35:06.029Z,0.76
2024-02-02T05:35:37.901Z,0.76
2024-02-02T05:36:09.735Z,0.77
2024-02-02T05:36:41.604Z,0.75
2024-02-02T05:37:13.510Z,0.74
2024-02-02T05:37:45.313Z,0.73
2024-02-02T05:38:17.131Z,0.77
2024-02-02T05:38:48.979Z,0.78
2024-02-02T05:39:20.838Z,0.80
2024-02-02T05:39:52.661Z,0.81
2024-02-02T05:40:24.528Z,0.82
2024-02-02T05:40:56.346Z,0.80
2024-02-02T05:41:28.181Z,0.80
2024-02-02T05:42:00.528Z,0.82
2024-02-02T05:42:32.553Z,0.82
2024-02-02T05:43:04.605Z,0.83
2024-02-02T05:43:36.470Z,0.81
2024-02-02T05:44:08.328Z,0.83
2024-02-02T05:44:40.164Z,0.81
2024-02-02T05:45:12.112Z,0.81
2024-02-02T05:45:43.970Z,0.83
2024-02-02T05:46:15.794Z,0.83
2024-02-02T05:46:47.717Z,0.84
2024-02-02T05:47:19.545Z,0.83
2024-02-02T05:47:51.943Z,0.84
2024-02-02T05:48:23.922Z,0.84
2024-02-02T05:48:55.983Z,0.84
2024-02-02T05:49:28.090Z,0.85
2024-02-02T05:49:59.995Z,0.83
2024-02-02T05:50:31.882Z,0.81
2024-02-02T05:51:04.028Z,0.80
2024-02-02T05:51:36.027Z,0.79
2024-02-02T05:52:10.194Z,0.75
2024-02-02T05:52:42.198Z,0.80
2024-02-02T05:53:14.540Z,0.77
2024-02-02T05:53:46.630Z,0.75
2024-02-02T05:54:18.608Z,0.73
2024-02-02T05:54:50.464Z,0.75
2024-02-02T05:55:22.336Z,0.74
2024-02-02T05:55:54.110Z,0.75
2024-02-02T05:56:25.878Z,0.76
2024-02-02T05:56:57.868Z,0.72
2024-02-02T05:57:29.749Z,0.73
2024-02-02T05:58:01.698Z,0.72
2024-02-02T05:58:33.733Z,0.74
2024-02-02T05:59:05.613Z,0.74
2024-02-02T05:59:37.416Z,0.75
2024-02-02T06:00:12.036Z,0.75
2024-02-02T06:00:44.053Z,0.74
2024-02-02T06:01:15.936Z,0.76
2024-02-02T06:01:47.736Z,0.72
2024-02-02T06:02:19.505Z,0.73
2024-02-02T06:02:51.318Z,0.72
2024-02-02T06:03:23.192Z,0.75
2024-02-02T06:03:55.354Z,0.77
2024-02-02T06:04:27.500Z,0.75
2024-02-02T06:04:59.303Z,0.74
2024-02-02T06:05:34.073Z,0.74
2024-02-02T06:06:06.069Z,0.72
2024-02-02T06:06:37.921Z,0.72
2024-02-02T06:07:09.834Z,0.73
2024-02-02T06:07:41.827Z,0.72
2024-02-02T06:08:15.819Z,0.73
2024-02-02T06:08:47.590Z,0.73
2024-02-02T06:09:19.386Z,0.72
2024-02-02T06:09:51.196Z,0.70
2024-02-02T06:10:23.061Z,0.70
2024-02-02T06:10:54.890Z,0.71
2024-02-02T06:11:26.704Z,0.70
2024-02-02T06:11:58.697Z,0.68
2024-02-02T06:12:30.575Z,0.70
2024-02-02T06:13:02.401Z,0.69
2024-02-02T06:13:34.563Z,0.69
2024-02-02T06:14:06.458Z,0.68
2024-02-02T06:14:38.306Z,0.71
2024-02-02T06:15:10.297Z,0.71
2024-02-02T06:15:42.227Z,0.71
2024-02-02T06:16:14.082Z,0.72
2024-02-02T06:16:45.898Z,0.70
2024-02-02T06:17:17.749Z,0.69
2024-02-02T06:17:52.668Z,0.70
2024-02-02T06:18:25.545Z,0.72
2024-02-02T06:18:57.569Z,0.73
2024-02-02T06:19:29.689Z,0.76
2024-02-02T06:20:01.775Z,0.78
2024-02-02T06:20:33.957Z,0.79
2024-02-02T06:21:05.947Z,0.78
2024-02-02T06:21:37.954Z,0.77
2024-02-02T06:22:09.875Z,0.78
2024-02-02T06:22:41.710Z,0.78
2024-02-02T06:23:16.405Z,0.81
2024-02-02T06:23:48.196Z,0.80
2024-02-02T06:24:20.114Z,0.81
2024-02-02T06:24:52.052Z,0.82
2024-02-02T06:25:23.923Z,0.80
2024-02-02T06:25:55.720Z,0.81
2024-02-02T06:26:27.762Z,0.81
2024-02-02T06:26:59.617Z,0.81
2024-02-02T06:27:32.259Z,0.81
2024-02-02T06:28:04.289Z,0.80
2024-02-02T06:28:36.165Z,0.81
2024-02-02T06:29:08.153Z,0.80
2024-02-02T06:29:40.014Z,0.81
2024-02-02T06:30:13.053Z,0.79
2024-02-02T06:30:49.426Z,0.78
2024-02-02T06:31:22.984Z,0.79
2024-02-02T06:31:54.829Z,0.76
2024-02-02T06:32:26.770Z,0.78
2024-02-02T06:33:01.474Z,0.77
2024-02-02T06:33:33.672Z,0.80
2024-02-02T06:34:05.717Z,0.82
2024-02-02T06:34:38.538Z,0.84
2024-02-02T06:35:10.369Z,0.84
2024-02-02T06:35:43.180Z,0.83
2024-02-02T06:36:15.112Z,0.81
2024-02-02T06:36:47.010Z,0.82
2024-02-02T06:37:19.835Z,0.80
2024-02-02T06:37:51.620Z,0.81
2024-02-02T06:38:23.450Z,0.80
2024-02-02T06:38:56.815Z,0.78
2024-02-02T06:39:28.760Z,0.81
2024-02-02T06:40:04.765Z,0.80
2024-02-02T06:40:36.616Z,0.75
2024-02-02T06:41:11.750Z,0.71
2024-02-02T06:41:43.809Z,0.68
2024-02-02T06:42:15.852Z,0.72
2024-02-02T06:42:47.749Z,0.70
2024-02-02T06:43:19.603Z,0.70
2024-02-02T06:43:51.475Z,0.72
2024-02-02T06:44:23.337Z,0.70
2024-02-02T06:44:58.215Z,0.68
2024-02-02T06:45:30.645Z,0.68
2024-02-02T06:46:02.505Z,0.69
2024-02-02T06:46:34.561Z,0.71
2024-02-02T06:47:06.935Z,0.71
2024-02-02T06:47:39.884Z,0.72
2024-02-02T06:48:14.173Z,0.71
2024-02-02T06:48:46.231Z,0.70
2024-02-02T06:49:18.269Z,0.69
2024-02-02T06:49:50.270Z,0.67
2024-02-02T06:50:22.280Z,0.65
2024-02-02T06:50:54.220Z,0.66
2024-02-02T06:51:26.144Z,0.66
2024-02-02T06:51:57.957Z,0.65
2024-02-02T06:52:29.862Z,0.67
2024-02-02T06:53:03.158Z,0.67
2024-02-02T06:53:37.063Z,0.70
2024-02-02T06:54:09.489Z,0.73
2024-02-02T06:54:42.462Z,0.73
2024-02-02T06:55:15.149Z,0.73
2024-02-02T06:55:47.005Z,0.70
2024-02-02T06:56:43.140Z,0.73
2024-02-02T06:57:15.802Z,0.73
2024-02-02T06:57:50.093Z,0.74
2024-02-02T06:58:41.348Z,0.76
2024-02-02T06:59:13.320Z,0.79
2024-02-02T06:59:45.443Z,0.79
2024-02-02T07:00:17.988Z,0.82
2024-02-02T07:00:50.128Z,0.83
2024-02-02T07:01:22.351Z,0.82
2024-02-02T07:01:54.440Z,0.83
2024-02-02T07:02:31.619Z,0.85
2024-02-02T07:03:03.729Z,0.89
2024-02-02T07:03:36.068Z,0.91
2024-02-02T07:04:12.809Z,0.91
2024-02-02T07:04:44.819Z,0.92
2024-02-02T07:05:16.948Z,0.96
2024-02-02T07:05:48.744Z,0.96
2024-02-02T07:06:20.673Z,1.01
2024-02-02T07:06:52.741Z,1.04
2024-02-02T07:07:24.575Z,1.06
2024-02-02T07:07:56.403Z,1.08
2024-02-02T07:08:28.183Z,1.09
2024-02-02T07:09:02.749Z,1.10
2024-02-02T07:09:36.172Z,1.20